Weather History for KBXA - November, 2012

Change the Weather History Date:

Friday, November 2, 2012

  Actual Average Record
Temperature  
Mean Temperature 64 °F -  
Max Temperature 81 °F 75 °F 74 °F (2013)
Min Temperature 48 °F 51 °F 31 °F (2014)
Growing Degree Days 14 (Base 50)    
Moisture  
Dew Point 59 °F    
Average Humidity 86    
Maximum Humidity 100    
Minimum Humidity 49    
Precipitation  
Precipitation 0.00 in - - ()
Sea Level Pressure  
Sea Level Pressure 30.05 in    
Wind  
Wind Speed 2 mph ()    
Max Wind Speed 9 mph    
Max Gust Speed -    
Visibility 7.2 miles    
Events Fog    
Averages and records for this station are not official NWS values.
T = Trace of Precipitation, MM = Missing Value Source: Averaged Metar Reports

Daily Weather History Graph

Daily Weather History Graph

Search for Another Location

Airport or City:

Trip Planner

Search our weather history database for the weather conditions in past years. The results will help you decide how hot, cold, wet, or windy it might be!

Date:

Astronomy

Nov. 02, 2012 Rise Set
Actual Time 7:15 AM CDT 6:09 PM CDT
Civil Twilight 6:50 AM CDT 6:34 PM CDT
Nautical Twilight 6:22 AM CDT 7:03 PM CDT
Astronomical Twilight 5:53 AM CDT 7:31 PM CDT
Moon 9:05 PM CDT (11/2) 10:28 AM CDT (11/2)
Length of Visible Light 11h 44m
Length of Day
10h 54m
Waning Gibbous, 87% of the Moon is Illuminated
Nov 2
Waning Gibbous
Nov 6
Last Quarter
Nov 13
New
Nov 20
First Quarter
Nov 28
Full

Hourly Weather History & Observations

Time (CDT) Temp. Heat Index Dew Point Humidity Pressure Visibility Wind Dir Wind Speed Gust Speed Precip Events Conditions
12:15 AM 51.1 °F - 51.1 °F 100% 30.05 in 10.0 mi Calm Calm - N/A   Unknown
12:35 AM 50.9 °F - 50.9 °F 100% 30.04 in 10.0 mi Calm Calm - N/A   Unknown
1:15 AM 50.2 °F - 50.2 °F 100% 30.04 in 10.0 mi Calm Calm - N/A   Unknown
1:35 AM 50.4 °F - 50.4 °F 100% 30.04 in 10.0 mi Calm Calm - N/A   Unknown
1:55 AM 50.0 °F - 50.0 °F 100% 30.04 in 10.0 mi Calm Calm - N/A   Unknown
2:15 AM 50.0 °F - 50.0 °F 100% 30.04 in 10.0 mi Calm Calm - N/A   Unknown
2:55 AM 50.0 °F - 50.0 °F 100% 30.04 in 10.0 mi Calm Calm - N/A   Unknown
3:15 AM 49.5 °F - 49.5 °F 100% 30.04 in 10.0 mi Calm Calm - N/A   Unknown
3:35 AM 49.5 °F - 49.5 °F 100% 30.04 in 7.0 mi Calm Calm - N/A   Unknown
3:55 AM 49.1 °F - 49.1 °F 100% 30.04 in 7.0 mi Calm Calm - N/A   Unknown
4:15 AM 48.7 °F - 48.7 °F 100% 30.03 in 10.0 mi Calm Calm - N/A   Unknown
4:35 AM 49.5 °F - 49.5 °F 100% 30.03 in 10.0 mi Calm Calm - N/A   Unknown
4:55 AM 50.9 °F - 50.9 °F 100% 30.04 in 10.0 mi Calm Calm - N/A   Unknown
5:15 AM 52.0 °F - 52.0 °F 100% 30.03 in 0.8 mi Calm Calm - N/A   Overcast
5:35 AM 52.7 °F - 52.7 °F 100% 30.04 in 0.2 mi Calm Calm - N/A Fog Fog
6:15 AM 54.0 °F - 54.0 °F 100% 30.04 in 0.2 mi Calm Calm - N/A Fog Fog
6:55 AM 54.7 °F - 54.7 °F 100% 30.05 in 0.2 mi Calm Calm - N/A Fog Fog
7:15 AM 55.6 °F - 55.6 °F 100% 30.06 in 0.2 mi Calm Calm - N/A Fog Fog
7:35 AM 56.8 °F - 56.8 °F 100% 30.06 in 0.2 mi Calm Calm - N/A Fog Fog
7:55 AM 57.7 °F - 57.7 °F 100% 30.07 in 0.2 mi Calm Calm - N/A Fog Fog
8:15 AM 58.6 °F - 58.6 °F 100% 30.08 in 0.2 mi SSW 3.5 mph - N/A Fog Fog
8:35 AM 59.7 °F - 59.7 °F 100% 30.09 in 0.2 mi Calm Calm - N/A Fog Fog
9:15 AM 62.4 °F - 62.4 °F 100% 30.10 in 0.5 mi WSW 3.5 mph - N/A Fog Fog
9:35 AM 63.0 °F - 63.0 °F 100% 30.10 in 0.5 mi WSW 3.5 mph - N/A Fog Fog
9:55 AM 64.2 °F - 64.2 °F 100% 30.11 in 2.0 mi West 5.8 mph - N/A   Overcast
10:15 AM 64.8 °F - 64.8 °F 100% 30.11 in 5.0 mi West 6.9 mph - N/A   Scattered Clouds
10:35 AM 65.5 °F - 65.5 °F 100% 30.11 in 7.0 mi West 5.8 mph - N/A   Clear
10:55 AM 66.4 °F - 66.4 °F 100% 30.11 in 7.0 mi West 5.8 mph - N/A   Clear
11:15 AM 66.9 °F - 66.9 °F 100% 30.11 in 10.0 mi West 8.1 mph - N/A   Unknown
11:35 AM 69.1 °F - 69.1 °F 100% 30.10 in 10.0 mi WNW 8.1 mph - N/A   Unknown
11:55 AM 70.3 °F - 66.2 °F 87% 30.10 in 10.0 mi West 6.9 mph - N/A   Unknown
12:15 PM 72.5 °F - 65.5 °F 79% 30.09 in 10.0 mi West 6.9 mph - N/A   Unknown
12:35 PM 74.8 °F - 64.4 °F 70% 30.08 in 10.0 mi WNW 4.6 mph - N/A   Unknown
12:55 PM 75.9 °F - 63.0 °F 64% 30.07 in 10.0 mi WSW 5.8 mph - N/A   Unknown
1:15 PM 77.0 °F - 62.6 °F 61% 30.06 in 10.0 mi SW 3.5 mph - N/A   Unknown
1:35 PM 77.5 °F - 63.0 °F 61% 30.05 in 10.0 mi Calm Calm - N/A   Unknown
1:55 PM 78.4 °F - 62.6 °F 58% 30.04 in 10.0 mi WNW 5.8 mph - N/A   Unknown
2:15 PM 79.5 °F - 61.9 °F 55% 30.03 in 10.0 mi WNW 6.9 mph - N/A   Unknown
2:35 PM 80.6 °F 81.6 °F 61.3 °F 52% 30.03 in 10.0 mi West 9.2 mph - N/A   Unknown
2:55 PM 80.2 °F 81.3 °F 61.9 °F 53% 30.03 in 10.0 mi West 3.5 mph - N/A   Unknown
3:15 PM 81.0 °F 81.8 °F 61.2 °F 51% 30.02 in 10.0 mi West 8.1 mph - N/A   Unknown
3:35 PM 81.5 °F 82.2 °F 61.3 °F 50% 30.02 in 10.0 mi SW 8.1 mph - N/A   Unknown
3:55 PM 81.1 °F 81.9 °F 61.0 °F 50% 30.02 in 10.0 mi West 6.9 mph - N/A   Unknown
4:15 PM 81.0 °F 81.6 °F 59.9 °F 49% 30.01 in 10.0 mi WSW 6.9 mph - N/A   Unknown
4:35 PM 81.0 °F 81.6 °F 59.9 °F 49% 30.01 in 10.0 mi West 5.8 mph - N/A   Clear
4:55 PM 80.6 °F 81.2 °F 59.9 °F 49% 30.01 in 10.0 mi WSW 5.8 mph - N/A   Clear
5:15 PM 80.2 °F 81.0 °F 60.1 °F 50% 30.01 in 10.0 mi WSW 5.8 mph - N/A   Clear
5:35 PM 79.3 °F - 60.3 °F 52% 30.02 in 10.0 mi WSW 3.5 mph - N/A   Clear
5:55 PM 76.8 °F - 61.7 °F 59% 30.02 in 10.0 mi Calm Calm - N/A   Clear
6:15 PM 72.1 °F - 63.0 °F 73% 30.02 in 10.0 mi Calm Calm - N/A   Clear
6:35 PM 71.4 °F - 61.5 °F 71% 30.03 in 10.0 mi SW 5.8 mph - N/A   Clear
6:55 PM 70.7 °F - 61.5 °F 73% 30.03 in 10.0 mi SSW 5.8 mph - N/A   Clear
7:15 PM 69.1 °F - 61.7 °F 77% 30.03 in 10.0 mi Calm Calm - N/A   Unknown
7:35 PM 66.7 °F - 66.7 °F 100% 30.04 in 10.0 mi Calm Calm - N/A   Unknown
8:15 PM 65.3 °F - 65.3 °F 100% 30.05 in 10.0 mi Calm Calm - N/A   Unknown
8:35 PM 63.9 °F - 63.9 °F 100% 30.05 in 5.0 mi Calm Calm - N/A   Clear
8:55 PM 62.2 °F - 62.2 °F 100% 30.05 in 7.0 mi Calm Calm - N/A   Clear
9:15 PM 62.1 °F - 62.1 °F 100% 30.05 in 10.0 mi Calm Calm - N/A   Unknown
9:35 PM 61.9 °F - 61.9 °F 100% 30.06 in 0.5 mi Calm Calm - N/A Fog Fog
9:55 PM 60.1 °F - 60.1 °F 100% 30.06 in 4.0 mi Calm Calm - N/A   Mist
10:15 PM 59.4 °F - 59.4 °F 100% 30.07 in 7.0 mi Calm Calm - N/A   Unknown
10:35 PM 59.9 °F - 59.9 °F 100% 30.08 in 7.0 mi Calm Calm - N/A   Clear
10:55 PM 59.9 °F - 59.9 °F 100% 30.08 in 3.0 mi Calm Calm - N/A   Clear
11:15 PM 59.7 °F - 59.7 °F 100% 30.08 in 1.2 mi Calm Calm - N/A   Mist
11:35 PM 59.0 °F - 59.0 °F 100% 30.08 in 5.0 mi Calm Calm - N/A   Clear
11:55 PM 57.7 °F - 57.7 °F 100% 30.08 in 7.0 mi Calm Calm - N/A   Clear